Time;durP1;ratioP1;P1;durP2;ratioP2;P2;SDS_P1;SDS_P2;PMS_P1;PMS_P2;Temp;Humidity;BMP_temperature;BMP_pressure;BME280_temperature;BME280_humidity;BME280_pressure;Samples;Min_cycle;Max_cycle;Signal;HPM_P1;HPM_P2
2023/08/03 00:00:43;;;;;;;4.10;2.05;;;17.30;99.90;;;;;;5055258;28;20271;-73
2023/08/03 00:03:11;;;;;;;5.50;2.13;;;17.40;99.90;;;;;;5055286;28;20201;-75
2023/08/03 00:05:37;;;;;;;6.00;2.30;;;17.50;99.90;;;;;;5055386;28;20206;-73
2023/08/03 00:08:04;;;;;;;6.75;2.40;;;17.50;99.90;;;;;;5055116;28;20588;-72
2023/08/03 00:10:32;;;;;;;4.03;1.92;;;17.50;99.90;;;;;;5055165;28;20255;-73
2023/08/03 00:12:59;;;;;;;5.90;2.30;;;17.50;99.90;;;;;;5055039;28;20233;-73
2023/08/03 00:15:25;;;;;;;5.95;2.20;;;17.40;99.90;;;;;;5054977;28;20201;-72
2023/08/03 00:17:52;;;;;;;5.68;2.08;;;17.40;99.90;;;;;;5054868;28;20198;-72
2023/08/03 00:20:20;;;;;;;3.65;2.28;;;17.40;99.90;;;;;;5054926;28;20652;-72
2023/08/03 00:22:47;;;;;;;5.40;2.00;;;17.40;99.90;;;;;;5054800;28;20410;-72
2023/08/03 00:25:14;;;;;;;5.35;2.45;;;17.30;99.90;;;;;;5054845;28;20206;-72
2023/08/03 00:27:40;;;;;;;6.85;2.42;;;17.20;99.90;;;;;;5054789;28;20236;-72
2023/08/03 00:30:08;;;;;;;5.15;2.17;;;17.20;99.90;;;;;;5054603;28;20209;-73
2023/08/03 00:32:34;;;;;;;4.68;2.28;;;17.10;99.90;;;;;;5055162;28;20275;-73
2023/08/03 00:35:01;;;;;;;4.77;2.40;;;17.10;99.90;;;;;;5055060;28;20696;-73
2023/08/03 00:37:29;;;;;;;5.40;2.30;;;17.00;99.90;;;;;;5054870;28;20208;-72
2023/08/03 00:39:56;;;;;;;4.00;2.20;;;17.00;99.90;;;;;;5054352;28;20234;-73
2023/08/03 00:42:22;;;;;;;4.73;2.17;;;17.00;99.90;;;;;;5054330;28;20221;-72
2023/08/03 00:44:49;;;;;;;4.87;2.37;;;17.00;99.90;;;;;;5054241;28;20653;-73
2023/08/03 00:47:16;;;;;;;8.47;2.43;;;17.10;99.90;;;;;;5054151;28;20655;-73
2023/08/03 00:49:42;;;;;;;5.20;2.35;;;17.00;99.90;;;;;;5054312;28;20198;-73
2023/08/03 00:52:09;;;;;;;6.33;2.30;;;17.10;99.90;;;;;;5054271;28;20248;-73
2023/08/03 00:54:39;;;;;;;7.25;2.50;;;17.10;99.90;;;;;;5054197;28;20297;-72
2023/08/03 00:57:06;;;;;;;6.03;2.38;;;17.10;99.90;;;;;;5053996;28;20297;-73
2023/08/03 00:59:33;;;;;;;5.63;2.00;;;17.20;99.90;;;;;;5053949;28;20251;-73
2023/08/03 01:01:59;;;;;;;6.45;2.45;;;17.20;99.90;;;;;;5053988;28;20221;-72
2023/08/03 01:04:26;;;;;;;5.05;2.15;;;17.20;99.90;;;;;;5054095;28;20201;-73
2023/08/03 01:06:53;;;;;;;3.83;2.20;;;17.20;99.90;;;;;;5053919;28;20657;-73
2023/08/03 01:09:19;;;;;;;6.13;2.63;;;17.20;99.90;;;;;;5054075;28;20198;-73
2023/08/03 01:11:47;;;;;;;6.83;2.40;;;17.30;99.90;;;;;;5053753;28;20256;-72
2023/08/03 01:14:14;;;;;;;6.70;2.40;;;17.20;99.90;;;;;;5054111;28;20201;-72
2023/08/03 01:16:41;;;;;;;4.57;2.63;;;17.40;99.90;;;;;;5053979;28;20198;-73
2023/08/03 01:19:09;;;;;;;5.93;2.57;;;17.40;99.90;;;;;;5053343;28;20612;-73
2023/08/03 01:21:38;;;;;;;7.15;2.30;;;17.40;99.90;;;;;;5053750;28;20692;-73
2023/08/03 01:24:06;;;;;;;4.23;2.00;;;17.40;99.90;;;;;;5053602;28;20653;-73
2023/08/03 01:26:33;;;;;;;4.20;2.17;;;17.40;99.90;;;;;;5053620;28;20256;-72
2023/08/03 01:28:59;;;;;;;5.60;2.10;;;17.40;99.90;;;;;;5053451;28;20726;-72
2023/08/03 01:31:26;;;;;;;12.97;2.93;;;17.50;99.90;;;;;;5054372;28;20251;-73
2023/08/03 01:33:53;;;;;;;5.75;2.40;;;17.40;99.90;;;;;;5055151;28;20600;-72
2023/08/03 01:36:20;;;;;;;4.83;1.70;;;17.40;99.90;;;;;;5053488;28;20216;-73
2023/08/03 01:38:54;;;;;;;5.88;2.13;;;17.30;99.90;;;;;;5053307;28;20233;-73
2023/08/03 01:41:22;;;;;;;7.43;2.30;;;17.30;99.90;;;;;;5053463;28;20222;-72
2023/08/03 01:44:07;;;;;;;5.90;2.30;;;17.20;99.90;;;;;;5053431;28;20259;-73
2023/08/03 01:46:33;;;;;;;4.70;2.10;;;17.20;99.90;;;;;;5053340;28;20193;-72
2023/08/03 01:49:00;;;;;;;8.50;2.63;;;17.10;99.90;;;;;;5053243;28;20248;-73
2023/08/03 01:51:27;;;;;;;9.57;2.50;;;17.10;99.90;;;;;;5053009;28;20650;-73
2023/08/03 01:53:53;;;;;;;7.13;2.40;;;17.20;99.90;;;;;;5053306;28;20256;-73
2023/08/03 01:56:21;;;;;;;6.23;2.07;;;17.20;99.90;;;;;;5053259;28;20198;-72
2023/08/03 01:58:48;;;;;;;6.37;2.00;;;17.10;99.90;;;;;;5053062;28;20197;-73
2023/08/03 02:01:14;;;;;;;6.80;2.00;;;17.10;99.90;;;;;;5052906;28;20213;-73
2023/08/03 02:03:41;;;;;;;6.22;2.42;;;17.10;99.90;;;;;;5052971;28;20201;-73
2023/08/03 02:06:07;;;;;;;5.43;2.23;;;17.10;99.90;;;;;;5052920;28;20197;-72
2023/08/03 02:08:34;;;;;;;8.27;2.27;;;17.10;99.90;;;;;;5052951;28;20197;-72
2023/08/03 02:11:01;;;;;;;6.47;2.23;;;16.90;99.90;;;;;;5052890;28;20314;-73
2023/08/03 02:13:28;;;;;;;8.40;2.83;;;16.80;99.90;;;;;;5052464;28;20205;-73
2023/08/03 02:15:55;;;;;;;6.07;2.60;;;16.80;99.90;;;;;;5052756;28;20602;-72
2023/08/03 02:18:22;;;;;;;4.97;2.20;;;16.70;99.90;;;;;;5052666;28;20202;-73
2023/08/03 02:20:48;;;;;;;7.03;2.10;;;16.60;99.90;;;;;;5052804;28;20201;-73
2023/08/03 02:23:15;;;;;;;7.13;2.70;;;16.60;99.90;;;;;;5052549;28;20284;-73
2023/08/03 02:25:41;;;;;;;6.73;2.63;;;16.50;99.90;;;;;;5052412;28;20531;-72
2023/08/03 02:28:08;;;;;;;5.70;2.20;;;16.60;99.90;;;;;;5052551;28;20259;-73
2023/08/03 02:30:37;;;;;;;7.63;2.00;;;16.60;99.90;;;;;;5051973;28;20854;-73
2023/08/03 02:33:04;;;;;;;6.57;2.20;;;16.70;99.90;;;;;;5051898;28;20197;-73
2023/08/03 02:35:30;;;;;;;5.00;1.90;;;16.80;99.90;;;;;;5052407;28;20197;-73
2023/08/03 02:37:57;;;;;;;4.97;2.13;;;16.70;99.90;;;;;;5052216;28;20202;-72
2023/08/03 02:40:24;;;;;;;4.67;2.20;;;16.70;99.90;;;;;;5052099;28;20233;-73
2023/08/03 02:42:51;;;;;;;7.10;2.17;;;16.60;99.90;;;;;;5052371;28;20221;-72
2023/08/03 02:45:17;;;;;;;7.20;2.33;;;16.80;99.90;;;;;;5052278;28;20327;-73
2023/08/03 02:47:45;;;;;;;4.80;2.27;;;16.80;99.90;;;;;;5052259;28;20244;-72
2023/08/03 02:50:12;;;;;;;8.00;2.42;;;16.70;99.90;;;;;;5052379;28;20197;-72
2023/08/03 02:52:38;;;;;;;7.40;2.22;;;16.80;99.90;;;;;;5052439;28;20252;-73
2023/08/03 02:55:06;;;;;;;7.73;2.90;;;16.80;99.90;;;;;;5052179;28;20614;-72
2023/08/03 02:57:32;;;;;;;6.00;2.60;;;16.80;99.90;;;;;;5052278;28;20320;-73
2023/08/03 02:59:59;;;;;;;6.37;2.20;;;16.90;99.90;;;;;;5052133;28;20205;-73
2023/08/03 03:02:25;;;;;;;9.13;2.50;;;16.80;99.90;;;;;;5052325;28;20225;-73
2023/08/03 03:04:53;;;;;;;4.10;2.07;;;16.80;99.90;;;;;;5052381;28;20198;-73
2023/08/03 03:07:20;;;;;;;5.90;2.40;;;16.80;99.90;;;;;;5052178;28;20711;-73
2023/08/03 03:09:47;;;;;;;6.87;2.47;;;16.80;99.90;;;;;;5052263;28;20220;-73
2023/08/03 03:12:13;;;;;;;5.43;2.53;;;16.80;99.90;;;;;;5052066;28;20202;-72
2023/08/03 03:14:40;;;;;;;8.77;3.00;;;16.80;99.90;;;;;;5052120;28;20198;-72
2023/08/03 03:17:07;;;;;;;6.83;2.37;;;16.80;99.90;;;;;;5052330;28;20202;-73
2023/08/03 03:19:34;;;;;;;8.30;2.67;;;16.70;99.90;;;;;;5051990;28;20651;-73
2023/08/03 03:22:02;;;;;;;6.20;2.10;;;16.70;99.90;;;;;;5052070;28;20252;-72
2023/08/03 03:24:28;;;;;;;6.53;2.37;;;16.70;99.90;;;;;;5052184;28;20730;-73
2023/08/03 03:26:55;;;;;;;6.20;2.57;;;16.60;99.90;;;;;;5051954;28;20201;-73
2023/08/03 03:29:21;;;;;;;11.90;2.57;;;16.60;99.90;;;;;;5051893;28;20247;-73
2023/08/03 03:31:48;;;;;;;10.27;2.38;;;16.50;99.90;;;;;;5052199;28;20278;-72
2023/08/03 03:34:15;;;;;;;6.03;2.43;;;16.50;99.90;;;;;;5052073;28;20281;-73
2023/08/03 03:36:41;;;;;;;9.87;3.10;;;16.50;99.90;;;;;;5051944;28;20621;-73
2023/08/03 03:39:09;;;;;;;7.67;2.70;;;16.60;99.90;;;;;;5051815;28;20287;-73
2023/08/03 03:41:36;;;;;;;5.73;2.87;;;16.60;99.90;;;;;;5051771;28;20197;-73
2023/08/03 03:44:02;;;;;;;4.60;2.03;;;16.60;99.90;;;;;;5055025;28;20202;-73
2023/08/03 03:46:29;;;;;;;9.87;2.40;;;16.70;99.90;;;;;;5055701;28;20259;-73
2023/08/03 03:48:56;;;;;;;10.77;2.60;;;16.70;99.90;;;;;;5055568;28;20402;-73
2023/08/03 03:51:22;;;;;;;8.43;2.27;;;16.70;99.90;;;;;;5055315;28;20803;-72
2023/08/03 03:53:49;;;;;;;5.30;2.00;;;16.80;99.90;;;;;;5055269;28;20263;-72
2023/08/03 03:56:17;;;;;;;10.17;2.67;;;16.70;99.90;;;;;;5055255;28;20216;-72
2023/08/03 03:58:43;;;;;;;5.72;2.30;;;16.70;99.90;;;;;;5055405;28;20209;-73
2023/08/03 04:01:10;;;;;;;5.70;2.08;;;16.70;99.90;;;;;;5055196;28;20252;-73
2023/08/03 04:03:37;;;;;;;6.47;1.97;;;16.70;99.90;;;;;;5056733;28;20228;-73
2023/08/03 04:06:03;;;;;;;7.20;2.40;;;16.70;99.90;;;;;;5055220;28;20581;-72
2023/08/03 04:08:30;;;;;;;5.85;2.30;;;16.60;99.90;;;;;;5055032;28;20202;-73
2023/08/03 04:10:57;;;;;;;5.07;2.10;;;16.70;99.90;;;;;;5055023;28;20202;-72
2023/08/03 04:13:25;;;;;;;5.83;2.30;;;16.60;99.90;;;;;;5054900;28;20202;-73
2023/08/03 04:15:51;;;;;;;8.60;2.20;;;16.80;99.90;;;;;;5055074;28;20202;-73
2023/08/03 04:18:18;;;;;;;5.47;1.93;;;16.80;99.90;;;;;;5054896;28;20198;-73
2023/08/03 04:20:44;;;;;;;5.03;2.33;;;16.70;99.90;;;;;;5054825;28;20686;-73
2023/08/03 04:23:11;;;;;;;5.27;2.07;;;16.80;99.90;;;;;;5054597;28;20292;-73
2023/08/03 04:25:37;;;;;;;6.00;1.97;;;16.90;99.90;;;;;;5054771;28;20270;-73
2023/08/03 04:28:04;;;;;;;7.10;1.87;;;16.90;99.90;;;;;;5054921;28;20194;-73
2023/08/03 04:30:32;;;;;;;5.40;1.60;;;16.90;99.90;;;;;;5054672;28;20193;-73
2023/08/03 04:32:59;;;;;;;4.03;1.60;;;16.90;99.90;;;;;;5054543;28;20759;-73
2023/08/03 04:35:26;;;;;;;7.60;2.00;;;17.00;99.90;;;;;;5054560;28;20201;-73
2023/08/03 04:37:52;;;;;;;5.50;1.57;;;16.90;99.90;;;;;;5054505;28;20251;-73
2023/08/03 04:40:19;;;;;;;4.77;1.80;;;16.80;99.90;;;;;;5054324;28;20631;-73
2023/08/03 04:42:45;;;;;;;4.50;1.80;;;16.70;99.90;;;;;;5035146;28;20252;-73
2023/08/03 04:45:12;;;;;;;4.63;1.80;;;16.60;99.90;;;;;;5034626;28;20194;-73
2023/08/03 04:47:40;;;;;;;5.50;1.90;;;16.50;99.90;;;;;;5034547;28;20198;-73
2023/08/03 04:50:07;;;;;;;8.07;2.23;;;16.40;99.90;;;;;;5034374;28;20282;-72
2023/08/03 04:52:34;;;;;;;3.70;2.13;;;16.50;99.90;;;;;;5034294;28;20198;-73
2023/08/03 04:55:01;;;;;;;5.50;1.90;;;16.50;99.90;;;;;;5033706;28;20214;-75
2023/08/03 04:57:27;;;;;;;5.43;1.87;;;16.50;99.90;;;;;;5034637;28;20198;-73
2023/08/03 04:59:56;;;;;;;4.73;1.77;;;16.50;99.90;;;;;;5034279;28;20290;-73
2023/08/03 05:02:22;;;;;;;4.87;1.87;;;16.50;99.90;;;;;;5034003;28;20224;-74
2023/08/03 05:04:50;;;;;;;6.27;2.30;;;16.60;99.90;;;;;;5034070;28;20601;-76
2023/08/03 05:07:17;;;;;;;4.70;1.60;;;16.70;99.90;;;;;;5033995;28;20198;-77
2023/08/03 05:09:44;;;;;;;4.97;1.77;;;16.70;99.90;;;;;;5034126;28;20198;-74
2023/08/03 05:12:10;;;;;;;3.73;1.67;;;16.80;99.90;;;;;;5033951;28;20592;-74
2023/08/03 05:14:37;;;;;;;6.10;1.77;;;16.80;99.90;;;;;;5033928;28;20199;-74
2023/08/03 05:17:04;;;;;;;4.17;1.60;;;16.90;99.90;;;;;;5034016;28;20198;-74
2023/08/03 05:19:30;;;;;;;4.60;1.60;;;16.90;99.90;;;;;;5033757;28;20242;-75
2023/08/03 05:21:58;;;;;;;12.30;2.67;;;17.00;99.90;;;;;;5033876;28;20257;-75
2023/08/03 05:24:25;;;;;;;5.80;2.05;;;17.10;99.90;;;;;;5033906;28;20230;-75
2023/08/03 05:26:52;;;;;;;5.00;2.00;;;17.10;99.90;;;;;;5033806;28;20195;-74
2023/08/03 05:29:19;;;;;;;6.87;2.17;;;17.10;99.90;;;;;;5033594;28;20593;-76
2023/08/03 05:31:48;;;;;;;6.57;2.10;;;16.90;99.90;;;;;;5033512;28;20222;-75
2023/08/03 05:34:15;;;;;;;6.40;2.20;;;16.90;99.90;;;;;;5033553;28;20235;-75
2023/08/03 05:36:41;;;;;;;6.77;2.30;;;16.90;99.90;;;;;;5033644;28;20207;-75
2023/08/03 05:39:10;;;;;;;7.00;2.47;;;17.00;99.90;;;;;;5033425;28;20594;-75
2023/08/03 05:41:36;;;;;;;8.27;2.53;;;17.00;99.90;;;;;;5033434;28;20210;-75
2023/08/03 05:44:03;;;;;;;5.17;2.00;;;17.10;99.90;;;;;;5033363;28;20371;-75
2023/08/03 05:46:32;;;;;;;4.17;1.70;;;17.10;99.90;;;;;;5033381;28;20198;-74
2023/08/03 05:48:59;;;;;;;4.77;1.90;;;17.10;99.90;;;;;;5033238;28;20654;-74
2023/08/03 05:51:28;;;;;;;5.03;2.03;;;17.20;99.90;;;;;;5033482;28;20206;-73
2023/08/03 05:53:56;;;;;;;4.33;1.90;;;17.20;99.90;;;;;;5033305;28;20202;-73
2023/08/03 05:56:24;;;;;;;6.60;2.10;;;17.20;99.90;;;;;;5033150;28;20252;-73
2023/08/03 05:58:53;;;;;;;7.55;2.20;;;17.30;99.90;;;;;;5033094;28;20206;-73
2023/08/03 06:01:20;;;;;;;5.03;2.47;;;17.30;99.90;;;;;;5032783;28;20206;-73
2023/08/03 06:03:47;;;;;;;6.35;2.00;;;17.40;99.90;;;;;;5032994;28;20236;-73
2023/08/03 06:06:18;;;;;;;7.07;2.10;;;17.40;99.90;;;;;;5040710;28;20197;-73
2023/08/03 06:08:49;;;;;;;5.20;1.88;;;17.40;99.90;;;;;;5052906;28;20208;-73
2023/08/03 06:11:20;;;;;;;6.53;1.77;;;17.50;99.90;;;;;;5052664;28;20692;-73
2023/08/03 06:13:48;;;;;;;5.17;2.00;;;17.50;99.90;;;;;;5052539;28;20205;-74
2023/08/03 06:16:16;;;;;;;10.40;2.40;;;17.60;99.90;;;;;;5052582;28;20653;-73
2023/08/03 06:18:49;;;;;;;6.03;2.08;;;17.60;99.90;;;;;;5052702;28;20201;-73
2023/08/03 06:21:17;;;;;;;3.50;1.60;;;17.70;99.90;;;;;;5052655;28;20280;-74
2023/08/03 06:23:46;;;;;;;5.90;1.95;;;17.70;99.90;;;;;;5052529;28;20248;-74
2023/08/03 06:26:14;;;;;;;8.07;2.13;;;17.80;99.90;;;;;;5032180;28;20198;-76
2023/08/03 06:28:41;;;;;;;3.53;1.70;;;17.70;99.90;;;;;;5032268;28;20594;-76
2023/08/03 06:31:14;;;;;;;4.45;1.70;;;17.70;99.90;;;;;;5049775;28;20240;-77
2023/08/03 06:33:41;;;;;;;5.25;1.85;;;17.70;99.90;;;;;;5052658;28;20572;-76
2023/08/03 06:36:11;;;;;;;4.65;2.15;;;17.70;99.90;;;;;;5035134;28;20194;-75
2023/08/03 06:38:38;;;;;;;9.68;2.03;;;17.80;99.90;;;;;;5032290;28;20244;-75
2023/08/03 06:41:05;;;;;;;8.93;1.98;;;18.00;99.90;;;;;;5032390;28;20597;-76
2023/08/03 06:43:31;;;;;;;4.55;1.63;;;18.10;99.90;;;;;;5032388;28;20229;-75
2023/08/03 06:45:58;;;;;;;3.35;1.75;;;18.10;99.90;;;;;;5031682;28;20195;-73
2023/08/03 06:48:26;;;;;;;5.10;1.50;;;18.00;99.90;;;;;;5032387;28;20206;-74
2023/08/03 06:50:54;;;;;;;4.95;2.00;;;18.00;99.90;;;;;;5032278;28;20199;-74
2023/08/03 06:53:21;;;;;;;4.10;1.63;;;17.90;99.90;;;;;;5032367;28;20252;-74
2023/08/03 06:55:49;;;;;;;9.27;1.90;;;17.80;99.90;;;;;;5032447;28;20202;-74
2023/08/03 06:58:17;;;;;;;5.97;2.05;;;17.90;99.90;;;;;;5032435;28;20305;-74
2023/08/03 07:00:44;;;;;;;5.65;1.65;;;18.00;99.90;;;;;;5032181;28;20682;-74
2023/08/03 07:03:11;;;;;;;3.95;1.20;;;18.00;99.90;;;;;;5032171;28;20260;-74
2023/08/03 07:05:39;;;;;;;5.28;1.88;;;17.90;99.90;;;;;;5032174;28;20199;-74
2023/08/03 07:08:06;;;;;;;4.93;1.58;;;17.90;99.90;;;;;;5032099;28;20231;-74
2023/08/03 07:10:33;;;;;;;2.40;1.30;;;17.80;99.90;;;;;;5032023;28;20249;-74
2023/08/03 07:13:00;;;;;;;3.45;1.45;;;17.80;99.90;;;;;;5032094;28;20654;-74
2023/08/03 07:15:26;;;;;;;2.40;1.30;;;17.90;99.90;;;;;;5032254;28;20207;-74
2023/08/03 07:17:53;;;;;;;7.40;1.60;;;17.90;99.90;;;;;;5033435;28;20248;-74
2023/08/03 07:20:20;;;;;;;1.25;1.13;;;17.90;99.90;;;;;;5036072;28;20199;-74
2023/08/03 07:22:48;;;;;;;3.83;1.30;;;17.90;99.90;;;;;;5035960;28;20210;-74
2023/08/03 07:25:15;;;;;;;4.95;1.70;;;17.90;99.90;;;;;;5036032;28;20210;-74
2023/08/03 07:27:44;;;;;;;3.10;1.40;;;17.80;99.90;;;;;;5035975;28;20256;-74
2023/08/03 07:30:11;;;;;;;2.35;1.67;;;17.90;99.90;;;;;;5035754;28;20658;-74
2023/08/03 07:32:38;;;;;;;5.65;1.90;;;17.60;99.90;;;;;;5035916;28;20229;-74
2023/08/03 07:35:05;;;;;;;2.55;1.30;;;17.60;99.90;;;;;;5035778;28;20237;-74
2023/08/03 07:37:32;;;;;;;3.58;1.38;;;17.40;99.90;;;;;;5042357;28;20601;-74
2023/08/03 07:40:00;;;;;;;8.65;1.70;;;17.70;99.90;;;;;;5035556;28;20238;-75
2023/08/03 07:42:27;;;;;;;4.70;1.73;;;17.70;99.90;;;;;;5035597;28;20202;-75
2023/08/03 07:44:54;;;;;;;2.50;1.20;;;17.70;99.90;;;;;;5035582;28;20313;-75
2023/08/03 07:47:21;;;;;;;2.38;1.30;;;17.80;99.90;;;;;;5035503;28;20716;-75
2023/08/03 07:49:47;;;;;;;3.38;1.50;;;17.80;99.90;;;;;;5035424;28;20265;-75
2023/08/03 07:52:14;;;;;;;10.15;1.40;;;17.60;99.90;;;;;;5035612;28;20206;-75
2023/08/03 07:54:41;;;;;;;3.75;1.20;;;17.40;99.90;;;;;;5035539;28;20201;-76
2023/08/03 07:57:11;;;;;;;4.30;1.30;;;17.40;99.90;;;;;;5035411;28;20199;-75
2023/08/03 07:59:37;;;;;;;4.28;1.33;;;17.40;99.90;;;;;;5035415;28;20209;-75
2023/08/03 08:02:04;;;;;;;1.77;1.17;;;17.60;99.90;;;;;;5035128;28;20276;-73
2023/08/03 08:04:31;;;;;;;4.72;1.02;;;17.60;99.90;;;;;;5035419;28;20226;-72
2023/08/03 08:06:58;;;;;;;3.20;1.10;;;17.80;99.90;;;;;;5035225;28;20272;-73
2023/08/03 08:09:25;;;;;;;3.63;0.98;;;18.00;99.90;;;;;;5035226;28;20251;-75
2023/08/03 08:11:52;;;;;;;1.85;1.08;;;18.30;99.90;;;;;;5035129;28;20205;-75
2023/08/03 08:14:20;;;;;;;2.60;1.10;;;18.30;99.90;;;;;;5035157;28;20214;-74
2023/08/03 08:16:46;;;;;;;2.67;1.10;;;18.20;99.90;;;;;;5034867;28;20720;-74
2023/08/03 08:19:13;;;;;;;2.05;1.25;;;18.20;99.90;;;;;;5034892;28;20260;-75
2023/08/03 08:21:40;;;;;;;3.92;1.38;;;18.20;99.90;;;;;;5035012;28;20202;-74
2023/08/03 08:24:06;;;;;;;2.97;1.40;;;18.60;99.90;;;;;;5034901;28;20233;-74
2023/08/03 08:26:33;;;;;;;3.33;1.38;;;18.50;99.90;;;;;;5034733;28;20256;-74
2023/08/03 08:29:00;;;;;;;2.50;1.20;;;18.40;99.90;;;;;;5034729;28;20720;-75
2023/08/03 08:31:28;;;;;;;2.92;1.20;;;18.30;99.90;;;;;;5034697;28;20206;-74
2023/08/03 08:33:55;;;;;;;2.38;1.27;;;18.30;99.90;;;;;;5034775;28;20198;-74
2023/08/03 08:36:21;;;;;;;3.72;1.33;;;18.40;99.90;;;;;;5034902;28;20245;-77
2023/08/03 08:38:48;;;;;;;3.65;1.30;;;18.70;99.90;;;;;;5034480;28;20229;-71
2023/08/03 08:41:14;;;;;;;1.88;1.27;;;19.00;99.90;;;;;;5034506;28;20893;-74
2023/08/03 08:43:41;;;;;;;2.80;1.23;;;18.90;99.90;;;;;;5034525;28;20218;-74
2023/08/03 08:46:08;;;;;;;4.78;1.30;;;19.00;99.90;;;;;;5034467;28;20198;-74
2023/08/03 08:48:36;;;;;;;3.50;1.70;;;18.90;99.90;;;;;;5034468;28;20199;-74
2023/08/03 08:51:04;;;;;;;5.22;4.78;;;18.80;99.90;;;;;;5034570;28;20198;-74
2023/08/03 08:53:31;;;;;;;6.45;5.70;;;18.80;99.90;;;;;;5034468;28;20198;-74
2023/08/03 08:55:59;;;;;;;5.43;4.75;;;18.80;99.90;;;;;;5034366;28;20260;-74
2023/08/03 08:58:27;;;;;;;3.20;2.90;;;18.80;99.90;;;;;;5034156;28;20260;-74
2023/08/03 09:01:02;;;;;;;3.03;1.30;;;18.70;99.90;;;;;;5034386;28;20249;-74
2023/08/03 09:03:47;;;;;;;4.65;1.40;;;18.80;99.90;;;;;;5034258;28;20198;-75
2023/08/03 09:06:14;;;;;;;4.00;1.30;;;18.90;99.90;;;;;;5034405;28;20229;-75
2023/08/03 09:08:49;;;;;;;3.30;1.40;;;19.20;99.90;;;;;;5034299;28;20271;-75
2023/08/03 09:11:16;;;;;;;3.65;1.33;;;19.30;99.90;;;;;;5034507;28;20198;-75
2023/08/03 09:13:42;;;;;;;3.63;1.60;;;19.30;99.90;;;;;;5034424;28;20249;-76
2023/08/03 09:16:23;;;;;;;5.03;1.30;;;19.30;99.90;;;;;;5034041;28;20720;-75
2023/08/03 09:18:51;;;;;;;4.63;1.50;;;19.60;99.90;;;;;;5034166;28;20198;-75
2023/08/03 09:21:19;;;;;;;3.08;1.45;;;20.10;99.90;;;;;;5033962;28;20218;-74
2023/08/03 09:23:46;;;;;;;3.30;1.27;;;19.50;99.90;;;;;;5034062;28;20237;-75
2023/08/03 09:26:13;;;;;;;2.60;1.10;;;19.60;99.90;;;;;;5033951;28;20212;-75
2023/08/03 09:28:41;;;;;;;2.38;1.40;;;19.80;99.90;;;;;;5033788;28;20238;-74
2023/08/03 09:31:09;;;;;;;2.97;1.30;;;19.70;99.90;;;;;;5033709;28;20198;-75
2023/08/03 09:33:36;;;;;;;3.55;1.25;;;20.00;99.90;;;;;;5033532;28;20194;-75
2023/08/03 09:36:10;;;;;;;6.72;1.40;;;20.00;99.90;;;;;;5033453;28;20206;-75
2023/08/03 09:38:37;;;;;;;1.27;0.95;;;20.30;99.90;;;;;;5033502;28;20233;-74
2023/08/03 09:41:04;;;;;;;3.10;1.10;;;20.10;99.90;;;;;;5033168;28;20252;-75
2023/08/03 09:43:32;;;;;;;3.95;1.50;;;20.10;99.90;;;;;;5033496;28;20210;-75
2023/08/03 09:45:59;;;;;;;2.58;1.20;;;20.30;99.90;;;;;;5033463;28;20202;-75
2023/08/03 09:48:26;;;;;;;2.33;1.17;;;20.40;99.90;;;;;;5033157;28;20206;-74
2023/08/03 09:50:53;;;;;;;2.72;1.20;;;20.70;99.90;;;;;;5033416;28;20201;-74
2023/08/03 09:53:24;;;;;;;4.00;1.65;;;20.70;99.90;;;;;;5033389;28;20292;-81
2023/08/03 09:55:58;;;;;;;2.10;1.30;;;20.30;99.90;;;;;;5033415;28;20202;-75
2023/08/03 09:58:30;;;;;;;4.80;1.25;;;20.30;99.90;;;;;;5033220;28;20643;-74
2023/08/03 10:00:59;;;;;;;2.78;1.42;;;20.10;99.90;;;;;;5032977;28;20198;-75
2023/08/03 10:03:29;;;;;;;2.28;1.38;;;20.20;99.90;;;;;;5033208;28;20234;-73
2023/08/03 10:06:11;;;;;;;2.97;1.40;;;20.40;99.90;;;;;;5033214;28;20202;-72
2023/08/03 10:08:48;;;;;;;4.22;1.30;;;20.60;99.90;;;;;;5033123;28;20221;-73
2023/08/03 10:11:15;;;;;;;2.55;1.17;;;20.80;99.90;;;;;;5032932;28;20205;-74
2023/08/03 10:13:46;;;;;;;2.67;1.30;;;21.10;99.90;;;;;;5032984;28;20198;-74
2023/08/03 10:16:13;;;;;;;4.13;1.10;;;21.20;99.90;;;;;;5033142;28;20649;-74
2023/08/03 10:18:41;;;;;;;2.20;1.10;;;20.90;99.90;;;;;;5033068;28;20198;-75
2023/08/03 10:21:08;;;;;;;6.50;1.10;;;21.10;99.90;;;;;;5033073;28;20248;-74
2023/08/03 10:23:38;;;;;;;2.53;1.20;;;20.40;99.90;;;;;;5032971;28;20205;-74
2023/08/03 10:26:07;;;;;;;3.42;1.25;;;20.60;99.90;;;;;;5032980;28;20226;-74
2023/08/03 10:28:47;;;;;;;3.95;1.48;;;21.40;99.90;;;;;;5033016;28;20306;-74
2023/08/03 10:31:15;;;;;;;2.40;1.45;;;21.30;99.90;;;;;;5033058;28;20229;-74
2023/08/03 10:34:23;;;;;;;3.67;1.38;;;20.90;99.90;;;;;;5032896;28;20653;-74
2023/08/03 10:36:53;;;;;;;1.45;1.02;;;21.80;99.90;;;;;;5032865;28;20261;-74
2023/08/03 10:39:42;;;;;;;4.28;1.30;;;21.80;99.90;;;;;;5032723;28;20281;-74
2023/08/03 10:42:29;;;;;;;2.17;1.20;;;21.60;99.90;;;;;;5032608;28;20245;-74
2023/08/03 10:45:26;;;;;;;3.20;1.40;;;21.10;99.90;;;;;;5032422;28;20253;-74
2023/08/03 10:47:54;;;;;;;4.07;1.10;;;21.10;99.90;;;;;;5032681;28;20209;-74
2023/08/03 10:50:41;;;;;;;2.10;1.10;;;20.90;99.90;;;;;;5032624;28;20256;-74
2023/08/03 10:53:08;;;;;;;3.33;1.58;;;21.10;99.90;;;;;;5034049;28;20613;-74
2023/08/03 10:55:35;;;;;;;3.47;1.45;;;20.40;99.90;;;;;;5036774;28;20202;-74
2023/08/03 10:58:03;;;;;;;3.00;1.45;;;20.40;99.90;;;;;;5036752;28;20601;-74
2023/08/03 11:00:29;;;;;;;2.38;1.10;;;20.30;99.90;;;;;;5036664;28;20249;-74
2023/08/03 11:02:57;;;;;;;8.38;1.65;;;20.60;99.90;;;;;;5036638;28;20202;-74
2023/08/03 11:05:24;;;;;;;3.00;1.00;;;20.60;99.90;;;;;;5036363;28;20280;-74
2023/08/03 11:07:51;;;;;;;2.63;1.63;;;20.90;99.90;;;;;;5036324;28;20228;-74
2023/08/03 11:10:17;;;;;;;1.73;1.10;;;20.60;99.90;;;;;;5036594;28;20206;-74
2023/08/03 11:12:46;;;;;;;3.15;1.65;;;20.60;99.90;;;;;;5036454;28;20210;-74
2023/08/03 11:15:17;;;;;;;2.10;1.10;;;20.60;99.90;;;;;;5036322;28;20300;-74
2023/08/03 11:17:48;;;;;;;4.07;1.90;;;21.50;99.90;;;;;;5036331;28;20202;-74
2023/08/03 11:20:14;;;;;;;1.70;1.10;;;22.50;99.90;;;;;;5036258;28;20200;-74
2023/08/03 11:22:42;;;;;;;6.05;1.60;;;22.10;99.90;;;;;;5036421;28;20205;-73
2023/08/03 11:25:09;;;;;;;2.58;1.17;;;22.90;99.90;;;;;;5036298;28;20356;-73
2023/08/03 11:27:36;;;;;;;3.20;1.25;;;22.50;99.90;;;;;;5036187;28;20202;-73
2023/08/03 11:30:03;;;;;;;2.33;1.10;;;23.10;99.90;;;;;;5036038;28;20194;-73
2023/08/03 11:32:32;;;;;;;2.53;1.20;;;23.50;99.90;;;;;;5035970;28;20199;-74
2023/08/03 11:34:59;;;;;;;2.42;1.10;;;23.00;99.90;;;;;;5035905;28;20206;-74
2023/08/03 11:37:29;;;;;;;3.30;1.20;;;22.40;99.90;;;;;;5035853;28;20664;-74
2023/08/03 11:39:55;;;;;;;2.25;1.30;;;23.20;99.90;;;;;;5035745;28;20651;-74
2023/08/03 11:42:23;;;;;;;2.40;0.95;;;24.10;99.90;;;;;;5035809;28;20202;-74
2023/08/03 11:44:49;;;;;;;3.47;1.23;;;22.90;99.90;;;;;;5035470;28;20218;-73
2023/08/03 11:47:16;;;;;;;1.70;0.88;;;21.60;99.90;;;;;;5035709;28;20232;-73
2023/08/03 11:49:44;;;;;;;1.92;0.90;;;21.20;99.90;;;;;;5035934;28;20200;-74
2023/08/03 11:52:18;;;;;;;1.77;1.00;;;21.50;99.90;;;;;;5035754;28;20199;-74
2023/08/03 11:54:44;;;;;;;5.05;1.23;;;21.30;99.90;;;;;;5054525;28;20430;-74
2023/08/03 11:59:55;;;;;;;2.05;0.88;;;21.50;99.90;;;;;;5055368;28;20714;-76
2023/08/03 12:02:37;;;;;;;1.83;0.90;;;21.40;99.90;;;;;;5055447;28;20198;-74
2023/08/03 12:05:05;;;;;;;1.42;0.88;;;21.30;99.90;;;;;;5054850;28;20310;-73
2023/08/03 12:07:32;;;;;;;2.38;0.90;;;21.30;99.90;;;;;;5054992;28;20285;-73
2023/08/03 12:09:58;;;;;;;2.13;1.00;;;21.60;99.90;;;;;;5055033;28;20202;-73
2023/08/03 12:12:25;;;;;;;3.38;0.80;;;21.80;99.90;;;;;;5055063;28;20197;-73
2023/08/03 12:14:52;;;;;;;3.05;0.80;;;21.50;99.90;;;;;;5055339;28;20256;-73
2023/08/03 12:17:18;;;;;;;2.97;0.85;;;21.60;99.90;;;;;;5055132;28;20242;-73
2023/08/03 12:19:45;;;;;;;1.33;0.70;;;21.70;99.90;;;;;;5055167;28;20197;-73
2023/08/03 12:22:15;;;;;;;1.50;1.00;;;21.60;99.90;;;;;;5055016;28;20198;-73
2023/08/03 12:24:41;;;;;;;3.10;1.02;;;21.40;99.90;;;;;;5054752;28;20707;-73
2023/08/03 12:27:08;;;;;;;1.35;0.80;;;21.30;99.90;;;;;;5054954;28;20194;-73
2023/08/03 12:29:35;;;;;;;3.85;1.13;;;21.70;99.90;;;;;;5054906;28;20209;-73
2023/08/03 12:32:01;;;;;;;1.58;0.90;;;22.10;99.90;;;;;;5054917;28;20198;-73
2023/08/03 12:34:28;;;;;;;1.17;0.70;;;21.50;99.90;;;;;;5054748;28;20198;-73
2023/08/03 12:36:54;;;;;;;2.65;1.00;;;20.70;99.90;;;;;;5054815;28;20202;-73
2023/08/03 12:39:22;;;;;;;1.33;0.88;;;20.90;99.90;;;;;;5054427;28;20299;-72
2023/08/03 12:41:49;;;;;;;1.25;0.80;;;21.80;99.90;;;;;;5054749;28;20277;-73
2023/08/03 12:44:17;;;;;;;2.28;0.70;;;21.30;99.90;;;;;;5054571;28;20247;-71
2023/08/03 12:46:43;;;;;;;1.13;0.60;;;21.80;99.90;;;;;;5053541;28;20683;-76
2023/08/03 12:49:10;;;;;;;1.17;0.60;;;22.60;99.90;;;;;;5054044;28;20194;-74
2023/08/03 12:51:37;;;;;;;1.67;0.93;;;22.60;99.90;;;;;;5054212;28;20194;-75